createdAt,value
2023-01-13T00:01:23.501Z,88.23
2023-01-13T00:03:50.603Z,88.32
2023-01-13T00:06:19.658Z,87.76
2023-01-13T00:08:49.891Z,86.21
2023-01-13T00:11:16.516Z,85.69
2023-01-13T00:13:43.079Z,85.77
2023-01-13T00:16:18.118Z,85.07
2023-01-13T00:18:45.193Z,83.36
2023-01-13T00:21:14.313Z,83.33
2023-01-13T00:23:40.885Z,83.38
2023-01-13T00:26:10.357Z,83.60
2023-01-13T00:28:37.200Z,82.91
2023-01-13T00:31:10.963Z,82.40
2023-01-13T00:33:37.859Z,82.56
2023-01-13T00:36:06.209Z,81.98
2023-01-13T00:38:34.520Z,80.98
2023-01-13T00:41:08.748Z,81.50
2023-01-13T00:43:36.402Z,82.04
2023-01-13T00:46:04.482Z,81.92
2023-01-13T00:48:32.430Z,81.80
2023-01-13T00:51:05.555Z,81.87
2023-01-13T00:53:41.071Z,82.23
2023-01-13T00:56:18.060Z,82.12
2023-01-13T00:58:46.035Z,82.54
2023-01-13T01:01:16.381Z,82.43
2023-01-13T01:03:43.119Z,83.15
2023-01-13T01:06:13.408Z,83.56
2023-01-13T01:08:40.346Z,83.92
2023-01-13T01:11:09.156Z,84.04
2023-01-13T01:13:36.456Z,84.55
2023-01-13T01:16:13.952Z,85.35
2023-01-13T01:18:43.140Z,86.05
2023-01-13T01:21:10.465Z,86.35
2023-01-13T01:23:38.466Z,86.85
2023-01-13T01:26:11.669Z,87.33
2023-01-13T01:28:38.549Z,87.83
2023-01-13T01:31:17.887Z,88.24
2023-01-13T01:33:46.352Z,88.46
2023-01-13T01:36:14.205Z,89.05
2023-01-13T01:38:40.825Z,88.91
2023-01-13T01:41:07.480Z,89.03
2023-01-13T01:44:00.510Z,89.56
2023-01-13T01:46:35.379Z,89.47
2023-01-13T01:49:14.062Z,89.68
2023-01-13T01:52:14.624Z,89.98
2023-01-13T01:54:48.210Z,90.54
2023-01-13T01:57:24.437Z,90.57
2023-01-13T01:59:51.074Z,90.90
2023-01-13T02:02:17.997Z,90.85
2023-01-13T02:04:50.940Z,90.73
2023-01-13T02:07:26.249Z,91.25
2023-01-13T02:09:55.176Z,91.18
2023-01-13T02:12:31.939Z,91.23
2023-01-13T02:15:12.411Z,91.13
2023-01-13T02:18:17.787Z,91.41
2023-01-13T02:20:56.219Z,91.06
2023-01-13T02:23:40.966Z,90.98
2023-01-13T02:26:10.006Z,90.92
2023-01-13T02:29:43.532Z,91.23
2023-01-13T02:32:33.474Z,90.96
2023-01-13T02:35:18.223Z,90.53
2023-01-13T02:37:46.025Z,90.56
2023-01-13T02:40:21.435Z,90.09
2023-01-13T02:43:51.833Z,89.88
2023-01-13T02:46:29.822Z,89.31
2023-01-13T02:48:59.861Z,89.61
2023-01-13T02:51:32.339Z,89.45
2023-01-13T02:54:02.072Z,89.10
2023-01-13T02:56:30.224Z,88.73
2023-01-13T02:58:58.642Z,88.43
2023-01-13T03:01:25.240Z,88.33
2023-01-13T03:03:51.735Z,88.46
2023-01-13T03:07:01.898Z,88.26
2023-01-13T03:09:43.560Z,87.94
2023-01-13T03:12:26.677Z,88.10
2023-01-13T03:15:19.019Z,87.35
2023-01-13T03:18:05.920Z,87.25
2023-01-13T03:20:41.198Z,87.32
2023-01-13T03:23:17.911Z,86.83
2023-01-13T03:25:57.179Z,87.03
2023-01-13T03:28:31.080Z,86.75
2023-01-13T03:31:04.747Z,86.41
2023-01-13T03:33:37.326Z,86.19
2023-01-13T03:36:07.973Z,86.37
2023-01-13T03:38:39.195Z,85.93
2023-01-13T03:41:10.505Z,86.15
2023-01-13T03:44:00.164Z,86.20
2023-01-13T03:46:42.349Z,85.77
2023-01-13T03:49:13.168Z,86.00
2023-01-13T03:51:43.885Z,86.02
2023-01-13T03:54:12.668Z,85.92
2023-01-13T03:56:47.384Z,85.96
2023-01-13T03:59:22.508Z,86.17
2023-01-13T04:01:57.160Z,86.39
2023-01-13T04:04:28.970Z,86.78
2023-01-13T04:07:05.286Z,86.93
2023-01-13T04:09:34.453Z,86.86
2023-01-13T04:12:11.212Z,87.10
2023-01-13T04:14:37.910Z,87.46
2023-01-13T04:17:05.127Z,87.33
2023-01-13T04:19:32.982Z,87.67
2023-01-13T04:21:59.607Z,87.57
2023-01-13T04:24:26.255Z,87.78
2023-01-13T04:26:52.670Z,87.75
2023-01-13T04:29:19.120Z,88.00
2023-01-13T04:31:45.506Z,87.57
2023-01-13T04:34:12.039Z,88.21
2023-01-13T04:36:38.634Z,88.14
2023-01-13T04:39:05.155Z,87.72
2023-01-13T04:41:54.353Z,88.06
2023-01-13T04:44:20.678Z,87.86
2023-01-13T04:46:47.302Z,87.42
2023-01-13T04:49:13.899Z,87.67
2023-01-13T04:51:40.275Z,87.15
2023-01-13T04:54:09.445Z,87.66
2023-01-13T04:56:35.832Z,87.18
2023-01-13T04:59:02.247Z,86.52
2023-01-13T05:01:28.682Z,86.62
2023-01-13T05:03:55.104Z,86.17
2023-01-13T05:06:23.942Z,86.20
2023-01-13T05:08:53.402Z,86.38
2023-01-13T05:11:38.515Z,85.79
2023-01-13T05:14:23.247Z,85.75
2023-01-13T05:17:04.528Z,86.21
2023-01-13T05:19:41.774Z,86.22
2023-01-13T05:22:26.453Z,85.90
2023-01-13T05:25:11.267Z,86.25
2023-01-13T05:27:37.813Z,86.06
2023-01-13T05:30:05.393Z,85.97
2023-01-13T05:32:33.415Z,86.23
2023-01-13T05:34:59.800Z,86.28
2023-01-13T05:37:27.632Z,86.61
2023-01-13T05:40:12.922Z,86.63
2023-01-13T05:42:57.785Z,86.94
2023-01-13T05:45:24.464Z,86.84
2023-01-13T05:47:50.838Z,86.15
2023-01-13T05:50:17.542Z,86.17
2023-01-13T05:52:44.480Z,86.13
2023-01-13T05:55:11.740Z,85.64
2023-01-13T05:57:38.254Z,85.13
2023-01-13T06:00:05.728Z,84.69
2023-01-13T06:02:32.339Z,84.64
2023-01-13T06:04:58.808Z,84.15
2023-01-13T06:07:25.249Z,84.03
2023-01-13T06:09:51.708Z,83.82
2023-01-13T06:12:19.395Z,82.73
2023-01-13T06:14:45.835Z,82.74
2023-01-13T06:17:14.327Z,82.62
2023-01-13T06:19:41.434Z,82.57
2023-01-13T06:22:22.955Z,81.93
2023-01-13T06:24:50.697Z,81.60
2023-01-13T06:27:18.407Z,82.00
2023-01-13T06:29:44.857Z,82.42
2023-01-13T06:32:18.759Z,82.23
2023-01-13T06:34:49.580Z,81.74
2023-01-13T06:37:19.818Z,82.13
2023-01-13T06:39:46.426Z,82.42
2023-01-13T06:42:31.580Z,81.46
2023-01-13T06:44:58.086Z,82.12
2023-01-13T06:47:24.545Z,81.68
2023-01-13T06:49:51.128Z,81.41
2023-01-13T06:52:17.493Z,81.42
2023-01-13T06:54:46.770Z,81.05
2023-01-13T06:57:13.428Z,81.19
2023-01-13T06:59:39.871Z,81.15
2023-01-13T07:02:08.963Z,80.55
2023-01-13T07:04:35.402Z,81.23
2023-01-13T07:07:01.900Z,80.58
2023-01-13T07:09:28.371Z,80.39
2023-01-13T07:11:54.915Z,80.05
2023-01-13T07:14:40.042Z,79.30
2023-01-13T07:17:06.504Z,79.70
2023-01-13T07:19:32.993Z,79.28
2023-01-13T07:22:02.450Z,79.47
2023-01-13T07:24:28.950Z,79.37
2023-01-13T07:26:55.461Z,79.26
2023-01-13T07:29:21.855Z,79.85
2023-01-13T07:31:50.106Z,79.72
2023-01-13T07:34:16.812Z,80.34
2023-01-13T07:36:43.187Z,80.94
2023-01-13T07:39:09.693Z,81.24
2023-01-13T07:41:54.765Z,81.39
2023-01-13T07:44:21.369Z,81.61
2023-01-13T07:46:48.002Z,81.30
2023-01-13T07:49:14.450Z,81.99
2023-01-13T07:51:40.932Z,82.48
2023-01-13T07:54:07.360Z,82.76
2023-01-13T07:56:33.929Z,83.59
2023-01-13T07:59:00.843Z,83.90
2023-01-13T08:01:28.032Z,84.12
2023-01-13T08:03:56.213Z,84.02
2023-01-13T08:06:22.715Z,84.24
2023-01-13T08:08:49.134Z,84.78
2023-01-13T08:11:15.631Z,84.71
2023-01-13T08:13:42.072Z,85.27
2023-01-13T08:16:11.866Z,85.96
2023-01-13T08:18:38.617Z,86.08
2023-01-13T08:21:08.343Z,86.49
2023-01-13T08:23:35.590Z,86.42
2023-01-13T08:26:06.700Z,86.96
2023-01-13T08:28:33.138Z,87.51
2023-01-13T08:31:01.749Z,87.40
2023-01-13T08:33:28.961Z,87.42
2023-01-13T08:35:56.169Z,87.47
2023-01-13T08:38:23.429Z,88.18
2023-01-13T08:40:50.477Z,88.26
2023-01-13T08:43:17.021Z,88.10
2023-01-13T08:45:43.479Z,88.42
2023-01-13T08:48:10.200Z,88.39
2023-01-13T08:50:36.689Z,88.23
2023-01-13T08:53:03.443Z,88.42
2023-01-13T08:55:29.909Z,88.27
2023-01-13T08:58:14.160Z,88.33
2023-01-13T09:00:42.190Z,88.38
2023-01-13T09:03:08.650Z,88.40
2023-01-13T09:05:35.990Z,88.40
2023-01-13T09:08:02.433Z,88.30
2023-01-13T09:10:28.802Z,88.09
2023-01-13T09:13:13.628Z,88.02
2023-01-13T09:15:42.529Z,87.62
2023-01-13T09:18:09.553Z,87.29
2023-01-13T09:20:36.045Z,87.73
2023-01-13T09:23:02.977Z,87.73
2023-01-13T09:25:29.443Z,87.42
2023-01-13T09:27:56.725Z,87.75
2023-01-13T09:30:23.448Z,88.10
2023-01-13T09:32:49.877Z,87.83
2023-01-13T09:35:18.857Z,87.82
2023-01-13T09:37:45.289Z,87.76
2023-01-13T09:40:22.843Z,87.53
2023-01-13T09:43:13.324Z,87.72
2023-01-13T09:45:56.166Z,87.64
2023-01-13T09:48:51.738Z,87.92
2023-01-13T09:51:28.001Z,87.92
2023-01-13T09:53:59.341Z,87.67
2023-01-13T09:56:26.338Z,87.77
2023-01-13T09:58:52.795Z,87.75
2023-01-13T10:01:33.548Z,88.07
2023-01-13T10:04:04.772Z,87.59
2023-01-13T10:06:39.382Z,87.63
2023-01-13T10:09:06.140Z,87.62
2023-01-13T10:11:58.716Z,87.30
2023-01-13T10:14:24.983Z,87.14
2023-01-13T10:17:04.226Z,87.42
2023-01-13T10:19:59.828Z,87.31
2023-01-13T10:23:07.494Z,87.09
2023-01-13T10:26:15.365Z,85.95
2023-01-13T10:28:41.764Z,85.00
2023-01-13T10:31:14.741Z,85.26
2023-01-13T10:33:41.207Z,84.84
2023-01-13T10:36:16.793Z,85.05
2023-01-13T10:38:48.426Z,83.33
2023-01-13T10:41:15.014Z,82.91
2023-01-13T10:43:45.438Z,82.77
2023-01-13T10:46:19.460Z,82.48
2023-01-13T10:48:58.781Z,82.64
2023-01-13T10:51:29.780Z,81.76
2023-01-13T10:54:20.246Z,82.63
2023-01-13T10:56:46.910Z,81.18
2023-01-13T10:59:24.630Z,81.26
2023-01-13T11:02:25.396Z,80.73
2023-01-13T11:04:55.377Z,79.88
2023-01-13T11:07:35.824Z,80.46
2023-01-13T11:10:23.021Z,80.73
2023-01-13T11:12:58.275Z,80.88
2023-01-13T11:15:38.461Z,80.35
2023-01-13T11:18:23.041Z,80.45
2023-01-13T11:20:51.628Z,79.86
2023-01-13T11:23:28.389Z,80.00
2023-01-13T11:26:01.293Z,80.21
2023-01-13T11:28:56.036Z,80.34
2023-01-13T11:31:34.778Z,79.38
2023-01-13T11:34:18.153Z,79.69
2023-01-13T11:36:50.987Z,78.85
2023-01-13T11:39:59.014Z,78.45
2023-01-13T11:42:40.366Z,78.56
2023-01-13T11:45:31.368Z,78.44
2023-01-13T11:48:01.611Z,78.90
2023-01-13T11:50:42.248Z,79.24
2023-01-13T11:53:22.481Z,79.31
2023-01-13T11:56:24.173Z,79.57
2023-01-13T11:58:58.093Z,79.37
2023-01-13T12:01:37.280Z,79.28
2023-01-13T12:04:25.272Z,78.45
2023-01-13T12:07:16.651Z,78.12
2023-01-13T12:10:13.195Z,78.40
2023-01-13T12:12:58.303Z,78.01
2023-01-13T12:15:36.586Z,77.79
2023-01-13T12:18:15.051Z,77.70
2023-01-13T12:21:00.011Z,77.55
2023-01-13T12:23:35.082Z,77.05
2023-01-13T12:26:07.883Z,77.34
2023-01-13T12:29:04.776Z,76.42
2023-01-13T12:31:36.631Z,76.47
2023-01-13T12:34:22.278Z,75.90
2023-01-13T12:37:17.277Z,75.94
2023-01-13T12:40:05.396Z,75.67
2023-01-13T12:43:09.207Z,75.52
2023-01-13T12:45:35.734Z,75.34
2023-01-13T12:48:02.214Z,75.37
2023-01-13T12:50:29.099Z,74.79
2023-01-13T12:52:57.672Z,74.73
2023-01-13T12:55:25.940Z,72.56
2023-01-13T12:58:02.454Z,72.16
2023-01-13T13:00:52.978Z,72.55
2023-01-13T13:03:28.052Z,71.86
2023-01-13T13:06:06.111Z,71.37
2023-01-13T13:09:10.549Z,70.91
2023-01-13T13:11:59.191Z,71.03
2023-01-13T13:14:37.723Z,70.55
2023-01-13T13:17:25.286Z,70.34
2023-01-13T13:19:52.371Z,69.80
2023-01-13T13:22:50.487Z,69.63
2023-01-13T13:25:22.505Z,69.98
2023-01-13T13:28:15.719Z,70.19
2023-01-13T13:30:52.261Z,70.21
2023-01-13T13:33:43.018Z,70.39
2023-01-13T13:36:09.423Z,69.83
2023-01-13T13:39:29.297Z,69.59
2023-01-13T13:42:23.102Z,69.95
2023-01-13T13:45:09.437Z,69.43
2023-01-13T13:47:39.444Z,70.01
2023-01-13T13:50:16.080Z,70.43
2023-01-13T13:53:18.307Z,70.66
2023-01-13T13:56:02.038Z,70.86
2023-01-13T13:58:31.341Z,70.75
2023-01-13T14:00:58.445Z,70.51
2023-01-13T14:03:28.852Z,70.79
2023-01-13T14:06:01.358Z,70.80
2023-01-13T14:08:29.898Z,71.05
2023-01-13T14:10:56.598Z,70.62
2023-01-13T14:13:27.533Z,71.71
2023-01-13T14:15:59.619Z,71.06
2023-01-13T14:18:27.107Z,70.89
2023-01-13T14:20:55.067Z,71.05
2023-01-13T14:23:28.259Z,70.91
2023-01-13T14:25:55.885Z,70.81
2023-01-13T14:28:33.902Z,70.80
2023-01-13T14:31:01.301Z,71.27
2023-01-13T14:33:41.080Z,71.40
2023-01-13T14:36:13.716Z,71.84
2023-01-13T14:38:40.760Z,72.34
2023-01-13T14:41:28.348Z,72.42
2023-01-13T14:43:59.191Z,72.85
2023-01-13T14:46:39.573Z,74.53
2023-01-13T14:49:32.130Z,74.85
2023-01-13T14:52:13.805Z,75.66
2023-01-13T14:55:10.097Z,75.59
2023-01-13T14:57:41.586Z,74.82
2023-01-13T15:00:20.575Z,74.97
2023-01-13T15:02:47.158Z,74.53
2023-01-13T15:05:19.741Z,74.59
2023-01-13T15:08:05.170Z,74.49
2023-01-13T15:10:41.585Z,73.92
2023-01-13T15:13:24.206Z,74.26
2023-01-13T15:15:55.785Z,74.20
2023-01-13T15:18:22.465Z,74.17
2023-01-13T15:20:50.782Z,74.19
2023-01-13T15:23:18.582Z,73.88
2023-01-13T15:25:46.017Z,73.68
2023-01-13T15:28:21.508Z,73.06
2023-01-13T15:30:51.535Z,73.00
2023-01-13T15:33:18.459Z,73.23
2023-01-13T15:35:50.196Z,73.89
2023-01-13T15:38:20.064Z,75.03
2023-01-13T15:40:47.808Z,76.07
2023-01-13T15:43:35.264Z,77.56
2023-01-13T15:46:22.493Z,78.49
2023-01-13T15:48:51.212Z,79.14
2023-01-13T15:51:21.223Z,79.46
2023-01-13T15:53:47.674Z,79.35
2023-01-13T15:56:39.073Z,79.58
2023-01-13T15:59:16.408Z,79.66
2023-01-13T16:01:43.040Z,79.67
2023-01-13T16:04:09.827Z,79.76
2023-01-13T16:06:38.167Z,79.12
2023-01-13T16:09:05.453Z,79.55
2023-01-13T16:11:32.063Z,79.73
2023-01-13T16:13:59.049Z,80.20
2023-01-13T16:16:27.853Z,80.65
2023-01-13T16:18:54.977Z,80.88
2023-01-13T16:21:24.494Z,80.53
2023-01-13T16:23:51.699Z,80.57
2023-01-13T16:26:25.003Z,80.20
2023-01-13T16:28:53.742Z,80.38
2023-01-13T16:31:31.613Z,80.76
2023-01-13T16:34:02.200Z,80.87
2023-01-13T16:36:30.476Z,81.74
2023-01-13T16:38:57.428Z,81.68
2023-01-13T16:41:24.981Z,81.92
2023-01-13T16:43:51.838Z,82.46
2023-01-13T16:46:19.835Z,81.65
2023-01-13T16:48:46.942Z,81.64
2023-01-13T16:51:13.448Z,81.64
2023-01-13T16:53:40.170Z,81.84
2023-01-13T16:56:26.963Z,82.52
2023-01-13T16:58:56.194Z,82.85
2023-01-13T17:01:29.075Z,83.48
2023-01-13T17:03:57.024Z,83.67
2023-01-13T17:06:41.545Z,83.84
2023-01-13T17:09:15.474Z,83.32
2023-01-13T17:11:41.803Z,83.68
2023-01-13T17:14:19.355Z,83.78
2023-01-13T17:16:46.373Z,83.78
2023-01-13T17:19:13.744Z,83.81
2023-01-13T17:21:40.513Z,83.71
2023-01-13T17:24:08.011Z,83.73
2023-01-13T17:26:44.100Z,83.84
2023-01-13T17:29:16.285Z,83.67
2023-01-13T17:31:42.667Z,82.87
2023-01-13T17:34:11.316Z,82.61
2023-01-13T17:36:37.793Z,82.39
2023-01-13T17:39:04.344Z,82.10
2023-01-13T17:41:30.959Z,82.38
2023-01-13T17:43:57.346Z,82.37
2023-01-13T17:46:24.101Z,82.20
2023-01-13T17:48:52.737Z,82.43
2023-01-13T17:51:20.283Z,83.04
2023-01-13T17:53:46.766Z,83.22
2023-01-13T17:56:15.221Z,83.73
2023-01-13T17:58:41.939Z,84.34
2023-01-13T18:01:15.291Z,84.32
2023-01-13T18:03:41.824Z,84.80
2023-01-13T18:06:14.788Z,84.81
2023-01-13T18:08:41.245Z,85.04
2023-01-13T18:11:07.848Z,84.73
2023-01-13T18:13:35.256Z,84.77
2023-01-13T18:16:13.314Z,84.63
2023-01-13T18:18:41.721Z,84.58
2023-01-13T18:21:35.975Z,84.12
2023-01-13T18:24:21.122Z,83.97
2023-01-13T18:27:05.974Z,84.33
2023-01-13T18:29:32.432Z,84.27
2023-01-13T18:31:58.872Z,84.14
2023-01-13T18:34:25.307Z,84.10
2023-01-13T18:36:51.747Z,83.49
2023-01-13T18:39:18.377Z,83.47
2023-01-13T18:42:03.000Z,83.29
2023-01-13T18:44:29.373Z,83.63
2023-01-13T18:46:55.855Z,83.37
2023-01-13T18:49:22.463Z,83.72
2023-01-13T18:51:48.976Z,83.26
2023-01-13T18:54:15.482Z,83.66
2023-01-13T18:56:42.073Z,83.52
2023-01-13T18:59:08.489Z,83.38
2023-01-13T19:01:36.929Z,83.62
2023-01-13T19:04:10.081Z,83.51
2023-01-13T19:06:39.611Z,83.40
2023-01-13T19:09:10.965Z,83.79
2023-01-13T19:11:37.739Z,83.60
2023-01-13T19:14:04.237Z,83.67
2023-01-13T19:16:30.610Z,83.73
2023-01-13T19:18:57.023Z,83.34
2023-01-13T19:21:24.779Z,83.39
2023-01-13T19:23:56.216Z,83.51
2023-01-13T19:26:22.865Z,83.37
2023-01-13T19:28:50.363Z,83.43
2023-01-13T19:31:17.169Z,83.19
2023-01-13T19:33:43.682Z,83.44
2023-01-13T19:36:11.417Z,83.67
2023-01-13T19:38:38.211Z,82.57
2023-01-13T19:41:11.683Z,82.62
2023-01-13T19:43:56.796Z,82.23
2023-01-13T19:46:26.107Z,82.53
2023-01-13T19:48:55.217Z,82.58
2023-01-13T19:51:21.704Z,82.87
2023-01-13T19:53:48.210Z,82.95
2023-01-13T19:56:15.248Z,82.76
2023-01-13T19:58:42.136Z,81.90
2023-01-13T20:01:10.118Z,81.27
2023-01-13T20:03:37.721Z,81.94
2023-01-13T20:06:08.781Z,83.23
2023-01-13T20:08:35.218Z,83.69
2023-01-13T20:11:21.404Z,84.47
2023-01-13T20:13:49.575Z,85.25
2023-01-13T20:16:16.067Z,86.31
2023-01-13T20:18:42.495Z,86.54
2023-01-13T20:21:09.341Z,87.45
2023-01-13T20:23:35.985Z,87.55
2023-01-13T20:26:02.555Z,87.85
2023-01-13T20:28:29.145Z,88.51
2023-01-13T20:30:58.206Z,88.54
2023-01-13T20:33:24.640Z,88.25
2023-01-13T20:35:59.467Z,87.98
2023-01-13T20:38:25.922Z,88.38
2023-01-13T20:41:21.748Z,88.00
2023-01-13T20:43:57.021Z,88.20
2023-01-13T20:46:28.030Z,88.19
2023-01-13T20:48:55.027Z,88.20
2023-01-13T20:51:23.815Z,88.31
2023-01-13T20:53:50.257Z,88.60
2023-01-13T20:56:17.781Z,88.38
2023-01-13T20:58:44.162Z,88.29
2023-01-13T21:01:10.730Z,88.67
2023-01-13T21:03:37.167Z,88.36
2023-01-13T21:06:03.761Z,88.37
2023-01-13T21:08:30.221Z,88.47
2023-01-13T21:11:05.972Z,88.12
2023-01-13T21:13:50.899Z,87.88
2023-01-13T21:16:17.416Z,88.19
2023-01-13T21:19:02.266Z,87.70
2023-01-13T21:21:28.789Z,87.55
2023-01-13T21:23:55.405Z,87.75
2023-01-13T21:26:22.167Z,87.87
2023-01-13T21:28:50.099Z,87.67
2023-01-13T21:31:17.745Z,88.28
2023-01-13T21:33:44.891Z,88.16
2023-01-13T21:36:15.543Z,88.31
2023-01-13T21:38:42.290Z,88.12
2023-01-13T21:41:09.538Z,87.81
2023-01-13T21:43:56.244Z,87.98
2023-01-13T21:46:42.741Z,88.10
2023-01-13T21:49:09.574Z,87.60
2023-01-13T21:51:36.557Z,87.65
2023-01-13T21:54:02.974Z,87.38
2023-01-13T21:56:29.317Z,86.97
2023-01-13T21:58:58.672Z,86.69
2023-01-13T22:01:25.257Z,86.65
2023-01-13T22:04:10.314Z,86.67
2023-01-13T22:06:36.785Z,86.71
2023-01-13T22:09:03.338Z,85.99
2023-01-13T22:11:30.051Z,85.75
2023-01-13T22:14:06.490Z,85.74
2023-01-13T22:16:39.173Z,85.11
2023-01-13T22:19:07.407Z,85.30
2023-01-13T22:21:34.388Z,84.97
2023-01-13T22:24:01.555Z,84.97
2023-01-13T22:26:28.087Z,84.55
2023-01-13T22:28:55.236Z,84.36
2023-01-13T22:31:23.848Z,84.18
2023-01-13T22:33:56.399Z,84.12
2023-01-13T22:36:26.244Z,84.18
2023-01-13T22:38:54.773Z,83.96
2023-01-13T22:41:21.198Z,83.75
2023-01-13T22:43:47.620Z,83.73
2023-01-13T22:46:14.624Z,83.27
2023-01-13T22:48:41.280Z,82.91
2023-01-13T22:51:09.086Z,83.40
2023-01-13T22:53:36.608Z,83.09
2023-01-13T22:56:04.415Z,83.11
2023-01-13T22:58:31.068Z,82.88
2023-01-13T23:01:08.115Z,82.74
2023-01-13T23:03:34.513Z,82.81
2023-01-13T23:06:01.700Z,82.92
2023-01-13T23:08:28.162Z,82.38
2023-01-13T23:11:04.139Z,82.51
2023-01-13T23:13:31.035Z,82.17
2023-01-13T23:16:03.214Z,82.29
2023-01-13T23:18:29.652Z,82.20
2023-01-13T23:20:56.141Z,82.01
2023-01-13T23:23:24.886Z,80.94
2023-01-13T23:25:53.559Z,81.40
2023-01-13T23:28:21.070Z,81.09
2023-01-13T23:30:47.976Z,80.71
2023-01-13T23:33:14.738Z,80.73
2023-01-13T23:35:41.258Z,80.73
2023-01-13T23:38:07.686Z,80.30
2023-01-13T23:40:34.987Z,80.64
2023-01-13T23:43:01.465Z,80.38
2023-01-13T23:45:27.859Z,79.99
2023-01-13T23:47:55.816Z,79.79
2023-01-13T23:50:22.378Z,79.65
2023-01-13T23:52:48.791Z,79.48
2023-01-13T23:55:15.247Z,79.29
2023-01-13T23:57:44.522Z,78.81
